createdAt,value
2023-04-07T00:00:12.718Z,56.00
2023-04-07T00:02:42.427Z,56.00
2023-04-07T00:05:12.441Z,56.20
2023-04-07T00:07:52.475Z,56.30
2023-04-07T00:10:26.237Z,56.20
2023-04-07T00:12:54.254Z,56.00
2023-04-07T00:15:22.249Z,56.40
2023-04-07T00:17:50.466Z,56.60
2023-04-07T00:20:18.551Z,57.30
2023-04-07T00:22:46.641Z,56.60
2023-04-07T00:25:14.628Z,56.80
2023-04-07T00:27:43.948Z,57.60
2023-04-07T00:30:12.295Z,56.80
2023-04-07T00:32:40.429Z,56.50
2023-04-07T00:35:09.233Z,56.10
2023-04-07T00:37:37.397Z,55.60
2023-04-07T00:40:06.122Z,55.90
2023-04-07T00:42:34.856Z,55.20
2023-04-07T00:45:04.291Z,55.00
2023-04-07T00:47:32.408Z,55.10
2023-04-07T00:50:00.497Z,55.50
2023-04-07T00:52:30.204Z,55.70
2023-04-07T00:54:58.636Z,55.60
2023-04-07T00:57:27.445Z,55.60
2023-04-07T00:59:57.417Z,55.70
2023-04-07T01:02:37.820Z,55.80
2023-04-07T01:05:13.920Z,56.00
2023-04-07T01:07:52.051Z,56.40
2023-04-07T01:10:28.754Z,56.50
2023-04-07T01:13:03.979Z,57.00
2023-04-07T01:15:32.842Z,57.20
2023-04-07T01:18:10.028Z,57.30
2023-04-07T01:20:39.095Z,57.30
2023-04-07T01:23:09.343Z,57.60
2023-04-07T01:26:03.927Z,57.70
2023-04-07T01:29:03.672Z,58.00
2023-04-07T01:31:35.119Z,58.20
2023-04-07T01:34:05.212Z,58.20
2023-04-07T01:36:34.809Z,58.10
2023-04-07T01:39:03.610Z,58.30
2023-04-07T01:41:32.387Z,58.30
2023-04-07T01:44:02.062Z,58.40
2023-04-07T01:46:30.431Z,58.30
2023-04-07T01:49:00.605Z,58.30
2023-04-07T01:51:31.636Z,58.30
2023-04-07T01:54:00.668Z,58.20
2023-04-07T01:56:28.748Z,58.20
2023-04-07T01:58:56.737Z,57.80
2023-04-07T02:01:24.800Z,57.80
2023-04-07T02:03:58.248Z,57.90
2023-04-07T02:06:34.218Z,58.50
2023-04-07T02:09:08.123Z,59.10
2023-04-07T02:11:38.624Z,59.40
2023-04-07T02:14:08.500Z,59.30
2023-04-07T02:16:37.676Z,59.30
2023-04-07T02:19:06.567Z,59.00
2023-04-07T02:21:37.158Z,59.10
2023-04-07T02:24:08.062Z,59.30
2023-04-07T02:26:36.742Z,59.10
2023-04-07T02:29:04.972Z,59.20
2023-04-07T02:31:33.031Z,59.40
2023-04-07T02:34:01.010Z,59.40
2023-04-07T02:36:29.066Z,59.10
2023-04-07T02:38:58.452Z,59.10
2023-04-07T02:41:26.414Z,59.50
2023-04-07T02:43:54.637Z,60.20
2023-04-07T02:46:22.877Z,60.00
2023-04-07T02:48:51.624Z,59.90
2023-04-07T02:51:19.620Z,59.80
2023-04-07T02:53:47.558Z,59.70
2023-04-07T02:56:17.240Z,59.80
2023-04-07T02:58:45.230Z,59.80
2023-04-07T03:01:13.264Z,60.00
2023-04-07T03:03:42.420Z,60.20
2023-04-07T03:06:10.540Z,60.40
2023-04-07T03:08:38.478Z,60.40
2023-04-07T03:11:06.461Z,60.10
2023-04-07T03:13:35.853Z,59.80
2023-04-07T03:16:03.801Z,59.80
2023-04-07T03:18:31.871Z,59.50
2023-04-07T03:20:59.852Z,59.50
2023-04-07T03:23:29.404Z,59.60
2023-04-07T03:25:58.307Z,59.60
2023-04-07T03:28:26.580Z,60.00
2023-04-07T03:30:55.924Z,60.00
2023-04-07T03:33:23.992Z,60.20
2023-04-07T03:35:51.956Z,60.40
2023-04-07T03:38:19.888Z,60.20
2023-04-07T03:40:47.902Z,60.00
2023-04-07T03:43:16.302Z,59.80
2023-04-07T03:45:44.483Z,59.70
2023-04-07T03:48:13.813Z,59.90
2023-04-07T03:50:42.148Z,59.50
2023-04-07T03:53:10.395Z,59.30
2023-04-07T03:55:38.929Z,58.90
2023-04-07T03:58:07.038Z,58.90
2023-04-07T04:00:35.473Z,59.10
2023-04-07T04:03:03.781Z,59.40
2023-04-07T04:05:41.917Z,59.80
2023-04-07T04:08:09.892Z,59.80
2023-04-07T04:10:37.858Z,59.80
2023-04-07T04:13:07.959Z,59.90
2023-04-07T04:15:35.999Z,59.60
2023-04-07T04:18:04.151Z,59.60
2023-04-07T04:20:33.489Z,59.50
2023-04-07T04:23:01.592Z,59.40
2023-04-07T04:25:29.806Z,59.20
2023-04-07T04:27:57.735Z,58.70
2023-04-07T04:30:25.788Z,58.80
2023-04-07T04:32:53.827Z,59.00
2023-04-07T04:35:21.933Z,59.20
2023-04-07T04:37:51.466Z,59.50
2023-04-07T04:40:19.645Z,60.40
2023-04-07T04:42:47.700Z,60.40
2023-04-07T04:45:15.645Z,60.50
2023-04-07T04:47:44.280Z,60.90
2023-04-07T04:50:12.972Z,60.80
2023-04-07T04:52:40.943Z,60.90
2023-04-07T04:55:12.277Z,61.00
2023-04-07T04:57:41.985Z,60.70
2023-04-07T05:00:11.050Z,60.80
2023-04-07T05:02:39.370Z,60.90
2023-04-07T05:05:08.604Z,60.60
2023-04-07T05:07:40.332Z,60.60
2023-04-07T05:10:10.679Z,61.60
2023-04-07T05:12:38.773Z,60.80
2023-04-07T05:15:08.059Z,60.00
2023-04-07T05:17:36.269Z,60.70
2023-04-07T05:20:05.376Z,61.40
2023-04-07T05:22:33.299Z,61.50
2023-04-07T05:25:01.229Z,61.50
2023-04-07T05:27:30.563Z,61.40
2023-04-07T05:29:59.082Z,61.10
2023-04-07T05:32:29.342Z,60.50
2023-04-07T05:34:57.564Z,60.10
2023-04-07T05:37:25.604Z,59.80
2023-04-07T05:39:53.716Z,60.10
2023-04-07T05:42:21.857Z,59.80
2023-04-07T05:44:51.696Z,59.50
2023-04-07T05:47:19.675Z,59.30
2023-04-07T05:49:47.836Z,59.20
2023-04-07T05:52:16.345Z,59.10
2023-04-07T05:54:44.392Z,58.80
2023-04-07T05:57:12.382Z,58.20
2023-04-07T05:59:40.538Z,58.50
2023-04-07T06:02:10.033Z,58.70
2023-04-07T06:04:39.520Z,59.20
2023-04-07T06:07:07.750Z,59.10
2023-04-07T06:09:35.846Z,59.00
2023-04-07T06:12:05.137Z,59.30
2023-04-07T06:14:33.179Z,59.00
2023-04-07T06:17:01.383Z,58.80
2023-04-07T06:19:30.956Z,58.80
2023-04-07T06:21:58.971Z,59.00
2023-04-07T06:24:27.198Z,59.30
2023-04-07T06:26:56.316Z,59.10
2023-04-07T06:29:24.285Z,59.20
2023-04-07T06:31:52.254Z,59.30
2023-04-07T06:34:20.323Z,59.10
2023-04-07T06:36:49.706Z,58.90
2023-04-07T06:39:17.742Z,57.90
2023-04-07T06:41:47.002Z,57.70
2023-04-07T06:44:14.955Z,57.60
2023-04-07T06:46:44.401Z,57.20
2023-04-07T06:49:12.539Z,57.10
2023-04-07T06:51:40.510Z,56.80
2023-04-07T06:54:13.020Z,56.50
2023-04-07T06:56:41.367Z,56.30
2023-04-07T06:59:09.547Z,56.00
2023-04-07T07:01:38.450Z,55.80
2023-04-07T07:04:07.142Z,55.90
2023-04-07T07:06:35.334Z,56.40
2023-04-07T07:09:04.101Z,55.80
2023-04-07T07:11:33.427Z,55.50
2023-04-07T07:14:01.460Z,55.90
2023-04-07T07:16:29.442Z,55.90
2023-04-07T07:18:57.400Z,56.00
2023-04-07T07:21:26.726Z,56.70
2023-04-07T07:23:54.721Z,56.00
2023-04-07T07:26:22.765Z,55.70
2023-04-07T07:28:52.089Z,55.40
2023-04-07T07:31:20.430Z,55.50
2023-04-07T07:33:50.022Z,55.70
2023-04-07T07:36:18.340Z,55.50
2023-04-07T07:38:46.370Z,55.90
2023-04-07T07:41:14.583Z,55.50
2023-04-07T07:43:42.997Z,55.80
2023-04-07T07:46:12.457Z,55.70
2023-04-07T07:48:40.446Z,55.30
2023-04-07T07:51:08.391Z,55.50
2023-04-07T07:53:36.375Z,55.20
2023-04-07T07:56:04.379Z,55.30
2023-04-07T07:58:32.522Z,55.30
2023-04-07T08:01:00.645Z,54.70
2023-04-07T08:03:30.145Z,54.70
2023-04-07T08:06:01.189Z,54.40
2023-04-07T08:08:29.129Z,54.60
2023-04-07T08:10:57.064Z,54.20
2023-04-07T08:13:25.090Z,54.20
2023-04-07T08:15:53.081Z,54.10
2023-04-07T08:18:21.076Z,54.10
2023-04-07T08:20:51.574Z,54.10
2023-04-07T08:23:19.622Z,54.10
2023-04-07T08:25:47.543Z,54.40
2023-04-07T08:28:16.014Z,53.60
2023-04-07T08:30:43.975Z,53.10
2023-04-07T08:33:12.103Z,53.40
2023-04-07T08:35:40.026Z,52.60
2023-04-07T08:38:09.817Z,52.70
2023-04-07T08:40:38.037Z,52.50
2023-04-07T08:43:10.028Z,52.80
2023-04-07T08:45:42.182Z,52.30
2023-04-07T08:48:17.665Z,52.70
2023-04-07T08:50:47.146Z,52.70
2023-04-07T08:53:24.523Z,52.70
2023-04-07T08:55:52.953Z,52.50
2023-04-07T08:58:21.313Z,52.30
2023-04-07T09:00:50.423Z,52.00
2023-04-07T09:03:19.116Z,52.20
2023-04-07T09:05:47.417Z,51.90
2023-04-07T09:08:16.744Z,51.90
2023-04-07T09:10:44.744Z,52.10
2023-04-07T09:13:12.701Z,51.90
2023-04-07T09:15:41.503Z,50.90
2023-04-07T09:18:09.665Z,51.20
2023-04-07T09:20:57.770Z,49.90
2023-04-07T09:23:31.579Z,49.90
2023-04-07T09:26:01.553Z,49.60
2023-04-07T09:28:43.504Z,48.30
2023-04-07T09:31:11.545Z,48.50
2023-04-07T09:33:39.773Z,48.20
2023-04-07T09:36:08.247Z,47.90
2023-04-07T09:38:40.074Z,46.90
2023-04-07T09:41:09.332Z,47.20
2023-04-07T09:43:39.122Z,47.40
2023-04-07T09:46:15.274Z,45.40
2023-04-07T09:48:44.841Z,45.70
2023-04-07T09:51:14.574Z,46.40
2023-04-07T09:53:45.366Z,45.90
2023-04-07T09:56:14.257Z,45.80
2023-04-07T09:58:42.313Z,45.40
2023-04-07T10:01:11.560Z,45.70
2023-04-07T10:03:40.592Z,46.40
2023-04-07T10:06:08.837Z,45.80
2023-04-07T10:08:38.706Z,45.60
2023-04-07T10:11:08.203Z,44.90
2023-04-07T10:13:38.470Z,44.40
2023-04-07T10:16:08.635Z,44.00
2023-04-07T10:18:38.122Z,43.90
2023-04-07T10:21:09.415Z,45.20
2023-04-07T10:23:50.161Z,46.00
2023-04-07T10:26:25.001Z,45.60
2023-04-07T10:28:58.337Z,45.70
2023-04-07T10:31:26.655Z,44.30
2023-04-07T10:33:56.572Z,42.50
2023-04-07T10:36:24.893Z,43.50
2023-04-07T10:39:23.630Z,43.80
2023-04-07T10:41:53.414Z,43.60
2023-04-07T10:44:46.914Z,43.80
2023-04-07T10:47:15.125Z,44.00
2023-04-07T10:50:19.601Z,46.90
2023-04-07T10:52:48.702Z,45.20
2023-04-07T10:55:37.687Z,44.50
2023-04-07T10:58:21.205Z,44.20
2023-04-07T11:01:22.769Z,44.10
2023-04-07T11:04:04.914Z,43.60
2023-04-07T11:06:32.994Z,44.80
2023-04-07T11:09:00.966Z,43.20
2023-04-07T11:11:42.538Z,42.90
2023-04-07T11:14:11.918Z,43.00
2023-04-07T11:16:45.703Z,43.40
2023-04-07T11:19:13.744Z,43.60
2023-04-07T11:21:41.787Z,41.80
2023-04-07T11:24:09.742Z,43.10
2023-04-07T11:26:43.903Z,45.10
2023-04-07T11:29:13.515Z,45.40
2023-04-07T11:31:41.686Z,42.60
2023-04-07T11:34:09.713Z,42.40
2023-04-07T11:36:41.031Z,42.00
2023-04-07T11:39:21.010Z,43.30
2023-04-07T11:41:50.664Z,43.00
2023-04-07T11:44:20.537Z,42.20
2023-04-07T11:46:55.680Z,41.10
2023-04-07T11:49:25.054Z,41.00
2023-04-07T11:52:00.111Z,42.50
2023-04-07T11:54:28.425Z,40.50
2023-04-07T11:56:56.526Z,40.00
2023-04-07T11:59:27.052Z,40.90
2023-04-07T12:01:57.702Z,40.80
2023-04-07T12:04:26.216Z,41.30
2023-04-07T12:06:54.412Z,40.30
2023-04-07T12:09:30.955Z,40.10
2023-04-07T12:11:59.543Z,39.90
2023-04-07T12:14:29.204Z,39.70
2023-04-07T12:16:58.306Z,40.00
2023-04-07T12:19:28.126Z,39.90
2023-04-07T12:21:56.557Z,40.10
2023-04-07T12:24:24.875Z,39.90
2023-04-07T12:26:53.045Z,38.90
2023-04-07T12:29:21.158Z,39.60
2023-04-07T12:31:51.360Z,38.60
2023-04-07T12:34:19.766Z,38.50
2023-04-07T12:36:48.298Z,38.60
2023-04-07T12:39:16.856Z,38.40
2023-04-07T12:41:45.887Z,38.80
2023-04-07T12:44:14.193Z,38.60
2023-04-07T12:46:43.240Z,38.50
2023-04-07T12:49:12.789Z,38.50
2023-04-07T12:51:41.350Z,38.20
2023-04-07T12:54:09.839Z,38.20
2023-04-07T12:56:37.825Z,38.40
2023-04-07T12:59:05.769Z,38.50
2023-04-07T13:01:35.551Z,38.50
2023-04-07T13:04:03.704Z,38.60
2023-04-07T13:06:33.695Z,38.40
2023-04-07T13:09:01.657Z,38.40
2023-04-07T13:11:29.702Z,38.40
2023-04-07T13:13:59.829Z,38.40
2023-04-07T13:16:29.304Z,38.80
2023-04-07T13:18:57.283Z,38.70
2023-04-07T13:23:57.731Z,38.60
2023-04-07T13:26:26.207Z,38.50
2023-04-07T13:28:54.190Z,37.80
2023-04-07T13:31:23.896Z,37.90
2023-04-07T13:33:51.972Z,37.10
2023-04-07T13:36:22.547Z,36.80
2023-04-07T13:38:51.247Z,37.00
2023-04-07T13:41:21.590Z,37.60
2023-04-07T13:43:49.694Z,36.80
2023-04-07T13:46:28.131Z,36.30
2023-04-07T13:48:56.807Z,36.30
2023-04-07T13:51:24.932Z,36.60
2023-04-07T13:53:52.962Z,36.40
2023-04-07T13:56:22.550Z,36.20
2023-04-07T13:58:50.607Z,36.90
2023-04-07T14:01:18.917Z,36.60
2023-04-07T14:03:48.015Z,37.00
2023-04-07T14:06:16.736Z,36.40
2023-04-07T14:08:44.672Z,36.00
2023-04-07T14:11:12.602Z,36.10
2023-04-07T14:13:41.982Z,36.20
2023-04-07T14:16:10.043Z,36.30
2023-04-07T14:18:38.482Z,36.60
2023-04-07T14:21:06.652Z,36.70
2023-04-07T14:23:37.700Z,36.90
2023-04-07T14:26:20.192Z,36.80
2023-04-07T14:28:49.587Z,36.10
2023-04-07T14:31:18.375Z,36.00
2023-04-07T14:33:46.947Z,36.70
2023-04-07T14:36:16.705Z,36.70
2023-04-07T14:38:45.050Z,36.20
2023-04-07T14:41:13.329Z,36.80
2023-04-07T14:43:41.440Z,35.70
2023-04-07T14:46:12.275Z,36.20
2023-04-07T14:48:40.313Z,35.70
2023-04-07T14:51:13.609Z,34.90
2023-04-07T14:53:43.579Z,36.50
2023-04-07T14:56:11.583Z,36.00
2023-04-07T14:58:40.742Z,36.70
2023-04-07T15:01:10.372Z,35.80
2023-04-07T15:03:39.039Z,35.70
2023-04-07T15:06:10.450Z,36.20
2023-04-07T15:08:38.490Z,37.00
2023-04-07T15:11:06.779Z,37.30
2023-04-07T15:13:35.272Z,37.00
2023-04-07T15:16:13.273Z,37.10
2023-04-07T15:18:42.894Z,37.20
2023-04-07T15:21:11.917Z,37.70
2023-04-07T15:23:41.698Z,37.10
2023-04-07T15:26:10.412Z,36.10
2023-04-07T15:28:38.742Z,36.70
2023-04-07T15:31:08.703Z,37.00
2023-04-07T15:33:39.030Z,37.20
2023-04-07T15:36:07.964Z,37.40
2023-04-07T15:38:36.246Z,37.30
2023-04-07T15:41:04.261Z,38.00
2023-04-07T15:43:32.236Z,38.40
2023-04-07T15:46:00.500Z,38.70
2023-04-07T15:48:28.625Z,38.00
2023-04-07T15:50:57.951Z,37.80
2023-04-07T15:53:26.210Z,37.10
2023-04-07T15:55:54.226Z,37.80
2023-04-07T15:58:22.182Z,37.80
2023-04-07T16:00:50.545Z,38.10
2023-04-07T16:03:18.811Z,38.80
2023-04-07T16:05:46.877Z,39.20
2023-04-07T16:08:16.223Z,40.10
2023-04-07T16:10:44.605Z,40.40
2023-04-07T16:13:12.691Z,40.40
2023-04-07T16:15:41.782Z,40.80
2023-04-07T16:18:12.056Z,41.10
2023-04-07T16:20:40.448Z,41.00
2023-04-07T16:23:08.392Z,40.90
2023-04-07T16:25:37.695Z,41.10
2023-04-07T16:28:05.666Z,41.00
2023-04-07T16:30:33.675Z,40.90
2023-04-07T16:33:01.760Z,40.60
2023-04-07T16:35:30.918Z,40.80
2023-04-07T16:38:03.659Z,41.10
2023-04-07T16:40:31.699Z,40.90
2023-04-07T16:43:01.122Z,41.10
2023-04-07T16:45:29.209Z,41.10
2023-04-07T16:47:57.195Z,41.50
2023-04-07T16:50:25.243Z,41.90
2023-04-07T16:52:54.802Z,42.70
2023-04-07T16:55:22.988Z,42.50
2023-04-07T16:57:51.163Z,42.80
2023-04-07T17:00:21.213Z,43.80
2023-04-07T17:02:49.389Z,44.00
2023-04-07T17:05:18.318Z,44.50
2023-04-07T17:07:46.336Z,44.60
2023-04-07T17:10:15.062Z,44.80
2023-04-07T17:12:43.084Z,45.00
2023-04-07T17:15:11.846Z,45.40
2023-04-07T17:17:41.217Z,45.50
2023-04-07T17:20:10.872Z,45.50
2023-04-07T17:22:38.972Z,45.60
2023-04-07T17:25:07.733Z,45.70
2023-04-07T17:27:35.993Z,46.00
2023-04-07T17:30:07.059Z,46.20
2023-04-07T17:32:35.117Z,46.30
2023-04-07T17:35:04.594Z,46.70
2023-04-07T17:37:32.779Z,46.90
2023-04-07T17:40:01.764Z,47.00
2023-04-07T17:42:29.772Z,47.10
2023-04-07T17:44:57.774Z,47.40
2023-04-07T17:47:25.857Z,47.90
2023-04-07T17:49:53.834Z,48.20
2023-04-07T17:52:23.219Z,48.20
2023-04-07T17:54:51.220Z,48.50
2023-04-07T17:57:20.168Z,48.70
2023-04-07T17:59:48.549Z,49.40
2023-04-07T18:02:16.662Z,49.50
2023-04-07T18:04:45.599Z,48.50
2023-04-07T18:07:14.968Z,48.90
2023-04-07T18:09:45.005Z,49.10
2023-04-07T18:12:13.444Z,49.70
2023-04-07T18:14:41.489Z,50.40
2023-04-07T18:17:09.425Z,51.50
2023-04-07T18:19:39.477Z,52.40
2023-04-07T18:22:09.763Z,52.10
2023-04-07T18:24:38.275Z,52.60
2023-04-07T18:27:07.566Z,52.30
2023-04-07T18:29:35.539Z,54.00
2023-04-07T18:32:03.598Z,53.80
2023-04-07T18:34:31.548Z,54.20
2023-04-07T18:36:59.492Z,53.90
2023-04-07T18:39:28.060Z,54.20
2023-04-07T18:41:57.479Z,54.10
2023-04-07T18:44:28.526Z,54.40
2023-04-07T18:46:59.143Z,54.10
2023-04-07T18:49:28.485Z,53.70
2023-04-07T18:51:56.716Z,53.80
2023-04-07T18:54:27.081Z,53.60
2023-04-07T18:56:55.108Z,53.70
2023-04-07T18:59:23.124Z,54.00
2023-04-07T19:01:52.547Z,53.90
2023-04-07T19:04:21.450Z,54.30
2023-04-07T19:06:52.099Z,55.30
2023-04-07T19:09:20.059Z,55.80
2023-04-07T19:11:48.198Z,56.50
2023-04-07T19:14:16.159Z,57.40
2023-04-07T19:16:44.740Z,58.50
2023-04-07T19:19:14.695Z,58.60
2023-04-07T19:21:42.666Z,58.70
2023-04-07T19:24:10.808Z,59.20
2023-04-07T19:26:39.039Z,59.60
2023-04-07T19:29:07.062Z,59.90
2023-04-07T19:31:35.370Z,61.10
2023-04-07T19:34:03.425Z,62.90
2023-04-07T19:36:32.865Z,64.40
2023-04-07T19:39:01.011Z,65.20
2023-04-07T19:41:29.345Z,65.80
2023-04-07T19:43:57.448Z,66.40
2023-04-07T19:46:25.506Z,67.10
2023-04-07T19:48:53.769Z,67.80
2023-04-07T19:51:22.016Z,68.30
2023-04-07T19:53:51.823Z,68.80
2023-04-07T19:56:19.834Z,69.10
2023-04-07T19:58:49.068Z,69.20
2023-04-07T20:01:17.980Z,69.10
2023-04-07T20:03:47.187Z,69.40
2023-04-07T20:06:15.500Z,69.40
2023-04-07T20:08:43.736Z,69.40
2023-04-07T20:11:13.584Z,69.50
2023-04-07T20:13:43.493Z,69.50
2023-04-07T20:16:11.882Z,69.80
2023-04-07T20:18:39.815Z,69.90
2023-04-07T20:21:07.821Z,70.00
2023-04-07T20:23:35.823Z,70.20
2023-04-07T20:26:04.276Z,70.20
2023-04-07T20:28:33.597Z,70.30
2023-04-07T20:31:01.733Z,70.30
2023-04-07T20:33:29.721Z,70.50
2023-04-07T20:35:57.728Z,70.60
2023-04-07T20:38:26.102Z,70.70
2023-04-07T20:40:54.172Z,70.80
2023-04-07T20:43:23.765Z,71.00
2023-04-07T20:45:53.360Z,71.20
2023-04-07T20:48:23.915Z,71.30
2023-04-07T20:50:52.854Z,71.40
2023-04-07T20:53:21.454Z,72.20
2023-04-07T20:55:49.462Z,71.80
2023-04-07T20:58:18.477Z,71.60
2023-04-07T21:00:46.605Z,71.50
2023-04-07T21:03:16.435Z,71.20
2023-04-07T21:05:45.821Z,71.10
2023-04-07T21:08:15.856Z,71.20
2023-04-07T21:10:43.884Z,71.20
2023-04-07T21:13:11.812Z,71.00
2023-04-07T21:15:42.217Z,71.30
2023-04-07T21:18:10.393Z,71.20
2023-04-07T21:20:39.776Z,71.20
2023-04-07T21:23:08.723Z,71.20
2023-04-07T21:25:38.960Z,71.20
2023-04-07T21:28:07.346Z,71.00
2023-04-07T21:30:35.615Z,70.90
2023-04-07T21:33:04.200Z,71.00
2023-04-07T21:35:32.232Z,71.00
2023-04-07T21:38:01.581Z,71.00
2023-04-07T21:40:29.526Z,71.20
2023-04-07T21:42:57.653Z,71.30
2023-04-07T21:45:25.720Z,71.50
2023-04-07T21:47:53.680Z,71.40
2023-04-07T21:50:21.803Z,71.40
2023-04-07T21:52:51.643Z,71.80
2023-04-07T21:55:21.364Z,71.90
2023-04-07T21:57:50.248Z,71.90
2023-04-07T22:00:18.441Z,72.00
2023-04-07T22:02:46.810Z,71.90
2023-04-07T22:05:15.952Z,72.10
2023-04-07T22:07:45.618Z,72.60
2023-04-07T22:10:14.077Z,72.50
2023-04-07T22:12:43.484Z,72.40
2023-04-07T22:15:12.893Z,72.50
2023-04-07T22:17:41.395Z,72.70
2023-04-07T22:20:11.663Z,72.90
2023-04-07T22:22:39.838Z,73.10
2023-04-07T22:25:08.425Z,73.40
2023-04-07T22:27:36.393Z,73.70
2023-04-07T22:30:09.853Z,73.60
2023-04-07T22:32:38.238Z,73.60
2023-04-07T22:35:06.908Z,74.70
2023-04-07T22:37:34.899Z,74.10
2023-04-07T22:40:02.955Z,74.50
2023-04-07T22:42:31.142Z,74.70
2023-04-07T22:44:59.082Z,74.70
2023-04-07T22:47:28.397Z,74.30
2023-04-07T22:49:56.498Z,74.00
2023-04-07T22:52:24.444Z,74.90
2023-04-07T22:54:52.435Z,75.10
2023-04-07T22:57:20.545Z,74.70
2023-04-07T22:59:48.514Z,74.20
2023-04-07T23:02:16.546Z,74.10
2023-04-07T23:04:45.927Z,73.80
2023-04-07T23:07:14.016Z,73.90
2023-04-07T23:09:41.969Z,74.80
2023-04-07T23:12:10.560Z,75.60
2023-04-07T23:14:38.514Z,75.90
2023-04-07T23:17:06.534Z,75.80
2023-04-07T23:19:34.501Z,75.60
2023-04-07T23:22:03.799Z,75.40
2023-04-07T23:24:31.852Z,75.40
2023-04-07T23:26:59.854Z,75.20
2023-04-07T23:29:28.234Z,75.70
2023-04-07T23:31:56.734Z,76.20
2023-04-07T23:34:24.813Z,76.30
2023-04-07T23:36:53.025Z,76.20
2023-04-07T23:39:22.346Z,75.90
2023-04-07T23:41:50.314Z,75.70
2023-04-07T23:44:18.965Z,75.70
2023-04-07T23:46:46.931Z,75.90
2023-04-07T23:49:14.899Z,76.30
2023-04-07T23:51:43.795Z,76.10
2023-04-07T23:54:12.389Z,76.70
2023-04-07T23:56:41.672Z,77.00
2023-04-07T23:59:09.630Z,77.10
